Aérodrome :
LOGIN :

S'inscrire | Disclaimer

   EN    FR    IT 

 










Légende :    VFR   VFR Marginal   IFR   IFR Intensif   IFR Très Intensif
Visi : 
Plafond : 
>= 8 km
>= 3000ft
5 à 8 km
1000 à 3000 ft
1500m à 5 km
500 à 1000 ft
800 à 1500m
200 à 500 ft
< 800m
< 200 ft
Symboles :   Orages  Brouillard  Fortes neiges  Fortes précipitations  Vent > 20 kt
SIGMETs :   Divers  Orages  Givrage  Turbulence  Onde Orograph.  Cendres Volcan.






- Altitude de l'aérodrome : 1906 ft
- Code IATA : INN


LOWI - Innsbruck

DERNIER METAR :
  • 041620Z 09010KT 9999 FEW070 15/M03 Q1020 NOSIG

METARs EXPIRÉS :
  • 041550Z 06009KT 9999 FEW070 16/M03 Q1020 NOSIG
  • 041520Z 06009KT 020V120 9999 FEW070 16/M04 Q1020 NOSIG
  • 041450Z VRB06KT 9999 FEW070 16/M03 Q1020 NOSIG
  • 041420Z 04006KT 350V080 9999 FEW070 16/M02 Q1020 NOSIG
  • 041350Z 11004KT 010V180 9999 FEW070 16/M01 Q1020 NOSIG
  • 041320Z VRB03KT 9999 FEW070 16/M01 Q1020 BECMG 08008KT

TAF TAF LOWI
Valide du 04 à 12h jusqu'au 05 à 12h UTC


041115Z 0412/0512 08005KT 9999 FEW060 TX17/0512Z TN01/0504Z
TEMPO 0413/0419 07012KT
TEMPO 0510/0512 12010KT



MET'MAP, la Météo Aéronautique d'un coup d'oeil ! - Copyright ORBIFLY Décembre 2007 - Disclaimer

ORBIFLY MET'MAP TEAM :

Programmation & Développement : Alexandra Zaïnal
Sur une idée originale de : Baudouin d'Aumeries
Assistance à la programmation : Marc-Olivier Méhu
Soutien technique & logistique : Manuel Goepfert

Contact : metmap@orbifly.com




SOURCES & CREDITS :

   NOAA